Time;durP1;ratioP1;P1;durP2;ratioP2;P2;SDS_P1;SDS_P2;PMS_P1;PMS_P2;Temp;Humidity;BMP_temperature;BMP_pressure;BME280_temperature;BME280_humidity;BME280_pressure;Samples;Min_cycle;Max_cycle;Signal;HPM_P1;HPM_P2
2022/11/13 00:01:20;;;;;;;14.57;7.82;;;;;;;8.01;89.71;102849.22;5037667;27;99164;-31
2022/11/13 00:03:46;;;;;;;12.98;7.43;;;;;;;7.99;89.57;102848.34;5035953;28;96903;-31
2022/11/13 00:06:12;;;;;;;13.20;7.65;;;;;;;7.95;89.45;102844.81;5037608;28;96801;-31
2022/11/13 00:08:38;;;;;;;11.05;6.53;;;;;;;7.97;89.99;102845.66;5035300;28;101232;-32
2022/11/13 00:11:11;;;;;;;12.70;7.40;;;;;;;7.98;90.25;102849.25;5035869;28;100950;-31
2022/11/13 00:13:36;;;;;;;14.75;7.07;;;;;;;7.96;89.99;102835.81;5036281;28;96643;-31
2022/11/13 00:16:08;;;;;;;20.48;8.18;;;;;;;7.97;89.93;102842.09;5037371;28;96768;-31
2022/11/13 00:18:34;;;;;;;;;;;;;;;7.95;89.74;102833.13;5037302;28;99319;-32
2022/11/13 00:21:15;;;;;;;9.10;5.07;;;;;;;7.93;90.11;102825.06;5036610;28;97740;-31
2022/11/13 00:23:41;;;;;;;10.40;6.22;;;;;;;7.93;89.81;102816.06;5037177;28;96799;-32
2022/11/13 00:26:18;;;;;;;12.40;6.38;;;;;;;7.92;89.94;102811.59;5038204;28;96740;-30
2022/11/13 00:28:44;;;;;;;10.80;6.45;;;;;;;7.87;89.67;102809.88;5035578;28;101561;-31
2022/11/13 00:31:12;;;;;;;14.40;6.43;;;;;;;7.84;90.02;102803.63;5035405;28;101223;-31
2022/11/13 00:33:37;;;;;;;12.05;6.43;;;;;;;7.82;90.02;102808.19;5035258;28;96781;-31
2022/11/13 00:36:10;;;;;;;12.43;6.38;;;;;;;7.81;90.02;102803.69;5037386;28;96778;-31
2022/11/13 00:38:35;;;;;;;11.18;6.32;;;;;;;7.79;90.08;102800.13;5035423;28;100866;-33
2022/11/13 00:41:01;;;;;;;9.02;5.13;;;;;;;7.79;89.78;102797.44;5036987;28;98110;-31
2022/11/13 00:43:27;;;;;;;9.85;5.55;;;;;;;7.78;89.94;102792.97;5037244;27;96477;-32
2022/11/13 00:45:53;;;;;;;10.18;6.25;;;;;;;7.78;90.02;102790.28;5037067;27;96870;-31
2022/11/13 00:48:18;;;;;;;11.48;5.75;;;;;;;7.77;90.14;102783.09;5034975;28;100913;-31
2022/11/13 00:50:44;;;;;;;10.05;5.60;;;;;;;7.78;90.13;102785.75;5037122;28;97370;-31
2022/11/13 00:53:10;;;;;;;10.30;5.80;;;;;;;7.79;90.22;102784.84;5037095;28;96611;-31
2022/11/13 00:55:35;;;;;;;10.93;6.25;;;;;;;7.82;90.11;102789.31;5036749;27;97661;-31
2022/11/13 00:58:00;;;;;;;8.38;4.72;;;;;;;7.79;90.06;102776.75;5036053;28;102303;-30
2022/11/13 01:00:26;;;;;;;8.93;5.05;;;;;;;7.81;90.24;102772.22;5036395;27;97752;-31
2022/11/13 01:02:51;;;;;;;7.72;4.55;;;;;;;7.83;90.26;102769.50;5036431;28;96532;-31
2022/11/13 01:05:16;;;;;;;9.05;5.10;;;;;;;7.81;90.35;102768.63;5036379;28;100913;-31
2022/11/13 01:07:41;;;;;;;6.78;4.45;;;;;;;7.78;90.32;102766.00;5036454;27;98361;-31
2022/11/13 01:10:07;;;;;;;7.53;4.68;;;;;;;7.80;90.31;102764.16;5036356;28;98221;-31
2022/11/13 01:12:32;;;;;;;8.68;4.88;;;;;;;7.77;90.25;102761.50;5036721;28;96546;-32
2022/11/13 01:14:58;;;;;;;7.18;4.85;;;;;;;7.75;90.29;102758.84;5037104;27;96817;-31
2022/11/13 01:17:23;;;;;;;8.43;5.28;;;;;;;7.73;89.98;102758.00;5036391;28;97431;-31
2022/11/13 01:19:48;;;;;;;10.80;5.20;;;;;;;7.71;90.21;102761.63;5036472;28;97769;-33
2022/11/13 01:22:14;;;;;;;17.88;7.97;;;;;;;7.68;90.17;102759.00;5035678;28;96820;-33
2022/11/13 01:24:39;;;;;;;21.75;8.52;;;;;;;7.68;90.40;102756.31;5036487;28;100399;-31
2022/11/13 01:27:05;;;;;;;21.65;10.77;;;;;;;7.69;90.39;102758.06;5036081;28;97511;-32
2022/11/13 01:29:30;;;;;;;18.33;9.45;;;;;;;7.66;90.42;102751.81;5036357;27;97300;-31
2022/11/13 01:31:55;;;;;;;18.13;9.75;;;;;;;7.68;90.34;102753.63;5036516;27;96660;-31
2022/11/13 01:34:21;;;;;;;17.88;7.65;;;;;;;7.69;90.35;102745.47;5036315;28;96830;-32
2022/11/13 01:36:46;;;;;;;19.00;10.00;;;;;;;7.67;90.43;102741.91;5035278;28;114990;-31
2022/11/13 01:39:11;;;;;;;20.58;8.82;;;;;;;7.65;90.44;102741.97;5035751;28;115542;-33
2022/11/13 01:41:37;;;;;;;15.35;7.68;;;;;;;7.67;90.27;102741.91;5036307;28;96513;-33
2022/11/13 01:44:03;;;;;;;14.55;7.68;;;;;;;7.66;90.33;102756.31;5036029;28;96756;-32
2022/11/13 01:46:31;;;;;;;14.77;6.53;;;;;;;7.65;90.23;102747.34;5035246;27;99442;-32
2022/11/13 01:49:09;;;;;;;13.13;5.78;;;;;;;7.64;90.12;102750.06;5034261;28;101239;-31
2022/11/13 01:51:40;;;;;;;8.50;4.88;;;;;;;7.61;89.92;102745.63;5035953;28;96561;-32
2022/11/13 01:54:32;;;;;;;8.82;4.90;;;;;;;7.59;90.03;102743.88;5036067;28;96742;-31
2022/11/13 01:56:57;;;;;;;;;;;;;;;7.58;90.34;102737.59;5036389;28;98102;-32
2022/11/13 01:59:27;;;;;;;4.85;3.13;;;;;;;7.55;90.42;102726.84;5034830;27;97769;-31
2022/11/13 02:01:54;;;;;;;6.47;3.80;;;;;;;7.53;90.32;102735.88;5034705;28;96621;-31
2022/11/13 02:04:20;;;;;;;5.63;3.50;;;;;;;7.50;90.31;102728.75;5034465;28;96878;-31
2022/11/13 02:06:51;;;;;;;9.25;4.50;;;;;;;7.48;90.39;102741.34;5035430;28;97461;-31
2022/11/13 02:09:24;;;;;;;5.22;3.47;;;;;;;7.48;90.41;102741.34;5034017;27;100935;-31
2022/11/13 02:11:50;;;;;;;7.10;4.40;;;;;;;7.45;90.35;102734.22;5035518;27;96569;-31
2022/11/13 02:14:18;;;;;;;4.88;3.20;;;;;;;7.44;90.20;102732.44;5034212;28;96930;-32
2022/11/13 02:16:46;;;;;;;5.57;3.47;;;;;;;7.43;89.69;102743.25;5033899;28;101010;-31
2022/11/13 02:19:27;;;;;;;6.88;3.92;;;;;;;7.39;89.92;102726.25;5033938;28;100856;-32
2022/11/13 02:22:29;;;;;;;11.68;3.53;;;;;;;7.40;89.97;102724.44;5035367;28;96830;-31
2022/11/13 02:24:57;;;;;;;7.32;3.70;;;;;;;7.35;90.05;102719.13;5035980;28;96934;-31
2022/11/13 02:27:29;;;;;;;5.88;3.00;;;;;;;7.33;89.78;102714.69;5033833;28;101328;-31
2022/11/13 02:29:54;;;;;;;3.92;3.15;;;;;;;7.32;90.11;102718.31;5034033;28;100733;-31
2022/11/13 02:32:19;;;;;;;5.32;3.17;;;;;;;7.31;89.70;102712.00;5035620;28;96470;-31
2022/11/13 02:34:45;;;;;;;3.90;2.45;;;;;;;7.30;89.91;102723.72;5035815;27;96728;-31
2022/11/13 02:37:10;;;;;;;6.65;3.00;;;;;;;7.26;90.25;102707.63;5035035;27;97337;-31
2022/11/13 02:39:35;;;;;;;5.63;3.38;;;;;;;7.26;90.06;102704.94;5034718;28;106302;-31
2022/11/13 02:42:01;;;;;;;5.95;3.05;;;;;;;7.23;89.63;102705.88;5035294;27;96508;-31
2022/11/13 02:44:27;;;;;;;5.07;2.80;;;;;;;7.20;89.68;102705.94;5035454;28;96747;-31
2022/11/13 02:46:52;;;;;;;6.78;3.63;;;;;;;7.17;89.88;102706.84;5034817;28;97761;-31
2022/11/13 02:49:17;;;;;;;4.00;2.45;;;;;;;7.17;89.72;102709.56;5034405;28;114755;-31
2022/11/13 02:51:43;;;;;;;6.70;3.47;;;;;;;7.15;89.65;102711.41;5035308;28;96542;-34
2022/11/13 02:54:08;;;;;;;6.78;3.53;;;;;;;7.12;89.86;102707.88;5034760;28;113281;-31
2022/11/13 02:56:33;;;;;;;5.50;3.88;;;;;;;7.11;89.60;102711.50;5034895;27;97786;-32
2022/11/13 02:58:58;;;;;;;5.75;2.95;;;;;;;7.10;89.85;102707.00;5034116;28;116711;-31
2022/11/13 03:01:24;;;;;;;10.93;3.22;;;;;;;7.07;89.80;102698.97;5034452;27;96474;-31
2022/11/13 03:03:49;;;;;;;5.55;2.72;;;;;;;7.07;89.59;102691.78;5034811;28;96737;-32
2022/11/13 03:06:14;;;;;;;7.70;3.28;;;;;;;7.04;89.66;102691.84;5034686;28;97956;-31
2022/11/13 03:08:40;;;;;;;4.80;2.90;;;;;;;7.00;89.51;102690.97;5034566;28;107597;-31
2022/11/13 03:11:10;;;;;;;4.13;2.67;;;;;;;6.96;89.63;102689.28;5034864;28;96555;-32
2022/11/13 03:13:36;;;;;;;3.90;2.55;;;;;;;6.98;89.62;102673.97;5033264;28;96789;-31
2022/11/13 03:16:12;;;;;;;4.32;2.80;;;;;;;6.96;89.82;102677.59;5034231;28;104084;-31
2022/11/13 03:18:38;;;;;;;5.28;2.90;;;;;;;6.96;89.78;102677.59;5033363;28;100952;-32
2022/11/13 03:21:11;;;;;;;4.15;2.85;;;;;;;6.96;89.80;102673.13;5034399;28;96625;-31
2022/11/13 03:23:38;;;;;;;6.68;3.22;;;;;;;6.94;89.61;102680.31;5033309;28;96740;-31
2022/11/13 03:26:06;;;;;;;5.07;2.97;;;;;;;6.93;89.84;102683.03;5032517;28;100879;-32
2022/11/13 03:28:33;;;;;;;4.25;2.80;;;;;;;6.93;89.66;102672.25;5032932;28;100911;-32
2022/11/13 03:30:58;;;;;;;6.43;2.50;;;;;;;6.92;89.86;102686.66;5033152;28;96568;-31
2022/11/13 03:33:24;;;;;;;10.30;3.53;;;;;;;6.89;89.60;102690.28;5034589;28;96841;-31
2022/11/13 03:35:49;;;;;;;4.38;2.67;;;;;;;6.87;89.63;102681.34;5033773;28;112433;-31
2022/11/13 03:38:14;;;;;;;12.48;2.92;;;;;;;6.88;89.53;102684.91;5033667;28;112295;-31
2022/11/13 03:40:41;;;;;;;4.30;2.80;;;;;;;6.86;90.05;102678.66;5033401;28;113399;-33
2022/11/13 03:43:06;;;;;;;6.45;3.28;;;;;;;6.84;89.91;102680.50;5034957;28;96739;-31
2022/11/13 03:45:31;;;;;;;3.45;2.40;;;;;;;6.83;89.71;102678.72;5033772;28;109704;-32
2022/11/13 03:47:57;;;;;;;4.82;2.65;;;;;;;6.86;89.75;102686.75;5034211;28;98678;-31
2022/11/13 03:50:22;;;;;;;5.03;3.00;;;;;;;6.79;89.86;102678.78;5033277;28;110115;-31
2022/11/13 03:52:47;;;;;;;7.75;3.05;;;;;;;6.80;89.60;102679.66;5034335;28;96780;-31
2022/11/13 03:55:13;;;;;;;4.82;2.92;;;;;;;6.79;89.83;102684.16;5033782;28;107408;-30
2022/11/13 03:57:38;;;;;;;3.65;2.63;;;;;;;6.76;90.10;102676.13;5034011;28;97814;-30
2022/11/13 04:00:05;;;;;;;4.68;2.95;;;;;;;6.78;90.17;102684.19;5033708;28;105246;-31
2022/11/13 04:02:30;;;;;;;3.05;2.03;;;;;;;6.75;89.99;102673.47;5032733;28;96898;-31
2022/11/13 04:04:55;;;;;;;4.25;2.65;;;;;;;6.77;89.87;102671.66;5033071;28;114816;-31
2022/11/13 04:07:20;;;;;;;6.18;2.50;;;;;;;6.76;89.81;102670.72;5033632;28;114497;-31
2022/11/13 04:09:46;;;;;;;4.05;2.47;;;;;;;6.78;90.06;102668.03;5034304;28;96488;-32
2022/11/13 04:12:11;;;;;;;4.70;2.55;;;;;;;6.77;90.52;102661.75;5033961;28;100641;-31
2022/11/13 04:14:36;;;;;;;4.78;2.80;;;;;;;6.79;90.03;102661.72;5032723;28;118263;-33
2022/11/13 04:17:02;;;;;;;4.38;3.00;;;;;;;6.84;89.89;102659.84;5033666;28;102439;-31
2022/11/13 04:19:27;;;;;;;7.45;3.63;;;;;;;6.84;89.98;102650.88;5034135;28;96455;-33
2022/11/13 04:21:52;;;;;;;3.92;2.33;;;;;;;6.87;89.93;102651.72;5034337;27;101503;-32
2022/11/13 04:24:17;;;;;;;4.90;3.10;;;;;;;6.87;90.31;102650.84;5036926;28;108097;-32
2022/11/13 04:26:43;;;;;;;3.67;2.38;;;;;;;6.89;90.39;102652.59;5037054;27;97772;-31
2022/11/13 04:29:08;;;;;;;4.97;3.10;;;;;;;6.89;90.25;102649.88;5037714;28;96603;-31
2022/11/13 04:31:33;;;;;;;5.32;2.60;;;;;;;6.92;90.62;102640.88;5037564;28;98260;-31
2022/11/13 04:33:59;;;;;;;4.30;2.70;;;;;;;6.92;90.34;102638.16;5037098;28;97880;-33
2022/11/13 04:36:24;;;;;;;5.85;3.08;;;;;;;6.94;90.03;102644.44;5036801;27;99296;-32
2022/11/13 04:38:50;;;;;;;4.35;3.00;;;;;;;6.95;90.02;102655.16;5036714;28;96507;-32
2022/11/13 04:43:59;;;;;;;4.10;2.75;;;;;;;6.96;90.53;102640.78;5037034;28;96575;-31
2022/11/13 04:46:24;;;;;;;3.97;2.63;;;;;;;6.97;90.16;102649.75;5037030;27;98202;-31
2022/11/13 04:48:49;;;;;;;4.15;2.63;;;;;;;6.95;90.32;102646.19;5036537;28;107315;-31
2022/11/13 04:51:15;;;;;;;9.30;3.08;;;;;;;6.96;90.21;102650.66;5036010;28;111642;-31
2022/11/13 04:53:40;;;;;;;5.35;3.53;;;;;;;6.93;90.40;102656.97;5036310;28;108381;-31
2022/11/13 04:56:06;;;;;;;6.90;3.17;;;;;;;6.92;90.24;102654.34;5036912;28;99094;-31
2022/11/13 04:58:31;;;;;;;6.03;2.65;;;;;;;6.89;90.38;102651.66;5036793;28;96503;-31
2022/11/13 05:00:56;;;;;;;8.43;3.08;;;;;;;6.86;90.13;102647.22;5037163;27;96788;-31
2022/11/13 05:03:21;;;;;;;4.78;2.70;;;;;;;6.83;90.03;102646.41;5034849;28;121477;-31
2022/11/13 05:05:47;;;;;;;7.80;2.58;;;;;;;6.79;90.02;102633.00;5036282;27;104682;-30
2022/11/13 05:08:12;;;;;;;6.25;3.28;;;;;;;6.78;90.01;102636.59;5036241;27;98099;-31
2022/11/13 05:10:37;;;;;;;7.05;3.35;;;;;;;6.73;89.95;102638.47;5036850;27;96699;-32
2022/11/13 05:13:03;;;;;;;4.13;3.10;;;;;;;6.67;89.94;102632.28;5036349;27;101916;-30
2022/11/13 05:15:28;;;;;;;5.72;2.80;;;;;;;6.65;90.03;102632.34;5036144;28;107907;-31
2022/11/13 05:17:54;;;;;;;3.38;2.30;;;;;;;6.64;89.64;102632.34;5036628;28;96724;-31
2022/11/13 05:20:19;;;;;;;7.47;2.50;;;;;;;6.59;89.86;102617.16;5036685;28;96755;-31
2022/11/13 05:22:44;;;;;;;6.05;2.80;;;;;;;6.58;89.96;102633.34;5034593;28;100749;-32
2022/11/13 05:25:09;;;;;;;5.18;2.38;;;;;;;6.53;89.59;102627.13;5036377;28;97804;-31
2022/11/13 05:27:35;;;;;;;3.95;2.28;;;;;;;6.54;89.67;102631.63;5036364;28;96540;-31
2022/11/13 05:30:00;;;;;;;3.33;2.33;;;;;;;6.47;89.53;102622.75;5036244;28;96814;-32
2022/11/13 05:32:25;;;;;;;4.35;2.83;;;;;;;6.42;90.07;102621.06;5035704;28;104841;-30
2022/11/13 05:34:51;;;;;;;4.35;2.67;;;;;;;6.44;89.67;102616.53;5034626;28;116823;-31
2022/11/13 05:37:16;;;;;;;6.45;3.60;;;;;;;6.41;89.35;102603.09;5036401;28;96490;-31
2022/11/13 05:39:41;;;;;;;3.42;2.38;;;;;;;6.41;89.75;102603.09;5035826;27;96844;-31
2022/11/13 05:42:07;;;;;;;4.68;2.40;;;;;;;6.41;89.48;102597.72;5035915;28;97326;-31
2022/11/13 05:44:32;;;;;;;4.13;2.30;;;;;;;6.41;89.73;102600.41;5036704;27;96458;-31
2022/11/13 05:46:57;;;;;;;6.05;2.42;;;;;;;6.38;89.60;102588.78;5036322;28;96595;-31
2022/11/13 05:49:22;;;;;;;2.80;2.13;;;;;;;6.37;89.52;102581.63;5035936;28;98571;-31
2022/11/13 05:51:48;;;;;;;6.15;3.13;;;;;;;6.38;89.68;102594.16;5034818;28;112045;-31
2022/11/13 05:54:13;;;;;;;3.28;2.40;;;;;;;6.35;89.57;102572.69;5035444;27;103540;-30
2022/11/13 05:56:39;;;;;;;4.40;2.70;;;;;;;6.39;89.50;102587.00;5036234;28;96539;-32
2022/11/13 05:59:05;;;;;;;4.95;2.75;;;;;;;6.34;89.68;102591.53;5036204;28;96741;-31
2022/11/13 06:01:36;;;;;;;3.63;2.30;;;;;;;6.32;89.75;102580.81;5035824;28;97895;-31
2022/11/13 06:04:02;;;;;;;5.03;2.53;;;;;;;6.30;89.69;102584.44;5033926;28;99002;-31
2022/11/13 06:06:29;;;;;;;4.72;2.97;;;;;;;6.21;89.58;102580.09;5034324;28;96554;-31
2022/11/13 06:08:56;;;;;;;4.20;2.25;;;;;;;6.20;89.63;102574.72;5036373;27;96814;-31
2022/11/13 06:11:24;;;;;;;4.07;2.53;;;;;;;6.23;89.71;102577.38;5034019;28;101007;-31
2022/11/13 06:13:50;;;;;;;4.53;2.70;;;;;;;6.24;89.80;102579.16;5034039;28;100971;-31
2022/11/13 06:16:33;;;;;;;5.40;2.97;;;;;;;6.22;89.65;102571.13;5033604;28;96753;-31
2022/11/13 06:19:00;;;;;;;5.38;2.53;;;;;;;6.22;89.61;102565.75;5035753;28;96524;-31
2022/11/13 06:21:28;;;;;;;5.25;2.60;;;;;;;6.21;89.99;102565.75;5033249;28;100756;-31
2022/11/13 06:23:56;;;;;;;3.72;2.60;;;;;;;6.22;89.71;102560.34;5033623;28;101113;-31
2022/11/13 06:26:24;;;;;;;3.70;2.42;;;;;;;6.25;89.75;102564.81;5034101;28;96720;-31
2022/11/13 06:28:49;;;;;;;5.53;2.63;;;;;;;6.24;89.93;102568.38;5034109;28;96994;-31
2022/11/13 06:31:24;;;;;;;8.27;2.30;;;;;;;6.25;90.18;102570.19;5035265;28;97613;-31
2022/11/13 06:33:49;;;;;;;3.45;2.22;;;;;;;6.24;90.03;102553.13;5033905;28;100921;-32
2022/11/13 06:36:20;;;;;;;5.57;2.58;;;;;;;6.29;90.16;102556.66;5035731;28;96555;-33
2022/11/13 06:38:46;;;;;;;5.65;3.05;;;;;;;6.29;89.92;102550.38;5035447;28;96594;-31
2022/11/13 06:41:14;;;;;;;5.68;2.50;;;;;;;6.34;89.83;102549.41;5032962;28;100963;-31
2022/11/13 06:43:40;;;;;;;4.68;2.47;;;;;;;6.36;89.84;102560.09;5033421;28;101364;-31
2022/11/13 06:46:21;;;;;;;3.50;2.35;;;;;;;6.37;89.96;102559.22;5033269;28;96646;-31
2022/11/13 06:48:46;;;;;;;2.97;2.00;;;;;;;6.38;89.83;102555.59;5035607;28;96666;-31
2022/11/13 06:51:14;;;;;;;3.90;2.25;;;;;;;6.39;89.79;102549.31;5034910;28;98024;-31
2022/11/13 06:53:40;;;;;;;3.25;2.08;;;;;;;6.42;90.02;102551.06;5033352;28;99445;-31
2022/11/13 06:56:06;;;;;;;5.18;2.58;;;;;;;6.40;89.90;102543.00;5035330;28;96423;-31
2022/11/13 06:58:32;;;;;;;3.67;2.65;;;;;;;6.40;89.89;102543.00;5033786;28;96786;-31
2022/11/13 07:00:57;;;;;;;2.97;2.25;;;;;;;6.40;90.02;102550.19;5033268;28;100850;-31
2022/11/13 07:03:25;;;;;;;3.65;2.22;;;;;;;6.36;90.09;102542.19;5034328;27;104579;-30
2022/11/13 07:05:51;;;;;;;3.15;2.03;;;;;;;6.36;89.94;102550.25;5033029;28;96705;-31
2022/11/13 07:08:17;;;;;;;4.22;2.83;;;;;;;6.37;90.09;102549.34;5033504;28;96795;-31
2022/11/13 07:10:43;;;;;;;3.92;2.72;;;;;;;6.36;89.97;102544.88;5034341;27;103411;-31
2022/11/13 07:13:09;;;;;;;5.47;3.17;;;;;;;6.39;89.97;102543.94;5034377;28;97745;-31
2022/11/13 07:15:38;;;;;;;12.30;3.15;;;;;;;6.42;89.81;102551.06;5034771;27;96483;-31
2022/11/13 07:18:05;;;;;;;4.10;2.55;;;;;;;6.44;89.75;102543.88;5034677;28;96469;-31
2022/11/13 07:20:31;;;;;;;4.85;2.88;;;;;;;6.46;89.88;102544.69;5032398;28;101320;-31
2022/11/13 07:22:59;;;;;;;4.28;2.80;;;;;;;6.45;89.99;102540.25;5033301;28;101461;-31
2022/11/13 07:25:25;;;;;;;4.22;2.20;;;;;;;6.45;89.57;102537.56;5033335;28;96722;-32
2022/11/13 07:27:50;;;;;;;3.67;2.25;;;;;;;6.43;89.67;102534.00;5032957;28;96931;-32
2022/11/13 07:30:16;;;;;;;3.40;2.13;;;;;;;6.44;89.55;102539.34;5034111;28;97915;-31
2022/11/13 07:32:41;;;;;;;2.67;1.95;;;;;;;6.43;89.76;102528.59;5034068;28;99052;-31
2022/11/13 07:35:07;;;;;;;4.97;2.67;;;;;;;6.46;89.54;102534.84;5033916;28;112360;-31
2022/11/13 07:37:33;;;;;;;5.90;2.45;;;;;;;6.48;89.59;102534.78;5034582;28;96808;-31
2022/11/13 07:39:58;;;;;;;4.53;2.88;;;;;;;6.48;89.49;102541.06;5034257;27;98436;-32
2022/11/13 07:42:23;;;;;;;6.22;2.47;;;;;;;6.52;89.29;102541.91;5033246;28;110916;-31
2022/11/13 07:44:48;;;;;;;2.38;1.77;;;;;;;6.54;89.44;102545.47;5033672;27;104681;-31
2022/11/13 07:47:14;;;;;;;3.38;2.25;;;;;;;6.51;89.47;102538.34;5035044;28;96820;-31
2022/11/13 07:49:39;;;;;;;8.80;3.70;;;;;;;6.54;89.39;102535.59;5033953;28;114556;-30
2022/11/13 07:52:04;;;;;;;3.17;2.10;;;;;;;6.53;89.06;102532.91;5033465;28;122689;-30
2022/11/13 07:54:30;;;;;;;3.92;2.72;;;;;;;6.57;89.13;102540.91;5034054;28;96457;-32
2022/11/13 07:56:55;;;;;;;5.05;2.67;;;;;;;6.56;89.11;102530.19;5035259;28;96959;-32
2022/11/13 07:59:20;;;;;;;4.20;3.08;;;;;;;6.57;88.97;102532.81;5037280;28;112175;-31
2022/11/13 08:01:45;;;;;;;3.78;2.45;;;;;;;6.62;88.95;102537.25;5037182;28;111286;-31
2022/11/13 08:04:11;;;;;;;7.93;3.25;;;;;;;6.62;88.88;102532.75;5037749;27;97015;-31
2022/11/13 08:06:37;;;;;;;4.78;2.47;;;;;;;6.66;88.43;102537.16;5037692;28;96808;-31
2022/11/13 08:09:03;;;;;;;3.15;2.05;;;;;;;6.66;88.50;102545.25;5035893;28;98980;-31
2022/11/13 08:11:28;;;;;;;7.15;2.70;;;;;;;6.70;88.32;102544.28;5036267;28;100610;-31
2022/11/13 08:13:54;;;;;;;22.38;8.10;;;;;;;6.74;88.98;102548.69;5037686;28;96459;-31
2022/11/13 08:16:19;;;;;;;19.40;10.23;;;;;;;6.76;88.38;102536.06;5037496;28;96744;-31
2022/11/13 08:18:44;;;;;;;10.80;6.07;;;;;;;6.79;88.00;102544.13;5036690;27;99286;-31
2022/11/13 08:21:10;;;;;;;10.57;5.88;;;;;;;6.83;87.77;102538.66;5034758;28;110161;-31
2022/11/13 08:23:35;;;;;;;7.47;4.07;;;;;;;6.88;87.82;102531.38;5037321;28;96545;-32
2022/11/13 08:26:05;;;;;;;5.90;3.92;;;;;;;6.89;87.82;102534.06;5037098;28;101692;-31
2022/11/13 08:28:32;;;;;;;6.13;3.45;;;;;;;6.91;87.22;102537.63;5035729;28;99109;-32
2022/11/13 08:30:58;;;;;;;5.15;3.47;;;;;;;6.96;87.35;102542.88;5037219;28;97746;-31
2022/11/13 08:33:23;;;;;;;6.72;3.67;;;;;;;6.98;87.25;102541.97;5037206;28;96754;-32
2022/11/13 08:35:56;;;;;;;6.70;3.53;;;;;;;6.98;87.25;102530.28;5037766;27;96703;-30
2022/11/13 08:38:22;;;;;;;5.13;3.45;;;;;;;7.01;87.45;102532.94;5035459;28;101299;-30
2022/11/13 08:40:48;;;;;;;5.57;3.13;;;;;;;7.07;87.13;102542.69;5035272;28;100972;-31
2022/11/13 08:43:13;;;;;;;5.90;2.80;;;;;;;7.07;87.05;102532.81;5036722;28;96479;-31
2022/11/13 08:45:39;;;;;;;5.10;2.50;;;;;;;7.12;87.04;102533.59;5037319;28;96760;-31
2022/11/13 08:48:05;;;;;;;7.30;3.20;;;;;;;7.12;87.16;102528.19;5036895;28;98008;-32
2022/11/13 08:50:32;;;;;;;4.78;3.10;;;;;;;7.16;86.84;102532.63;5035275;28;100851;-32
2022/11/13 08:52:59;;;;;;;4.68;3.28;;;;;;;7.20;86.94;102530.78;5035671;28;96674;-31
2022/11/13 08:55:25;;;;;;;3.10;2.22;;;;;;;7.20;86.94;102515.47;5018951;28;97021;-31
2022/11/13 08:57:51;;;;;;;6.03;3.10;;;;;;;7.25;87.15;102526.16;5035283;28;100805;-31
2022/11/13 09:00:17;;;;;;;6.03;3.85;;;;;;;7.27;86.86;102505.47;5036901;27;98752;-31
2022/11/13 09:02:42;;;;;;;6.38;3.85;;;;;;;7.32;87.18;102508.06;5036798;28;96614;-32
2022/11/13 09:05:08;;;;;;;5.85;3.85;;;;;;;7.34;86.73;102506.19;5036946;28;96741;-32
2022/11/13 09:07:33;;;;;;;6.32;3.22;;;;;;;7.36;87.06;102501.66;5035719;28;99464;-31
2022/11/13 09:09:59;;;;;;;8.18;3.42;;;;;;;7.44;86.95;102499.72;5036556;28;97311;-31
2022/11/13 09:12:24;;;;;;;22.55;8.65;;;;;;;7.51;86.77;102506.75;5036868;28;96568;-31
2022/11/13 09:14:49;;;;;;;13.48;5.97;;;;;;;7.54;86.80;102501.28;5036875;27;96779;-31
2022/11/13 09:17:16;;;;;;;6.05;3.83;;;;;;;7.61;86.64;102500.22;5035755;27;99230;-31
2022/11/13 09:19:41;;;;;;;4.10;2.90;;;;;;;7.66;86.74;102495.59;5034887;28;98825;-30
2022/11/13 09:22:06;;;;;;;6.40;3.80;;;;;;;7.73;86.60;102492.78;5035399;27;96748;-32
2022/11/13 09:24:31;;;;;;;4.82;2.92;;;;;;;7.79;86.32;102488.09;5035889;28;107385;-32
2022/11/13 09:26:57;;;;;;;5.40;3.22;;;;;;;7.93;86.46;102485.06;5035748;27;112429;-31
2022/11/13 09:29:22;;;;;;;5.55;3.15;;;;;;;8.05;85.91;102482.06;5035855;28;110551;-31
2022/11/13 09:31:49;;;;;;;6.00;3.50;;;;;;;8.18;86.14;102482.69;5034581;28;96734;-32
2022/11/13 09:34:14;;;;;;;6.05;3.08;;;;;;;8.35;85.68;102482.25;5034801;28;96895;-31
2022/11/13 09:36:40;;;;;;;5.03;2.88;;;;;;;8.51;85.43;102477.38;5035799;28;99512;-31
2022/11/13 09:39:05;;;;;;;4.57;3.05;;;;;;;8.64;84.80;102467.97;5035689;28;99193;-31
2022/11/13 09:41:39;;;;;;;4.22;2.88;;;;;;;8.74;84.46;102468.63;5036414;28;96589;-32
2022/11/13 09:44:13;;;;;;;4.88;3.08;;;;;;;8.91;84.20;102474.44;5034724;28;96718;-32
2022/11/13 09:46:51;;;;;;;5.40;3.22;;;;;;;9.09;83.39;102472.13;5034431;28;101774;-30
2022/11/13 09:49:24;;;;;;;3.50;2.30;;;;;;;9.21;82.61;102469.06;5034826;28;101107;-31
2022/11/13 09:51:54;;;;;;;4.13;2.72;;;;;;;9.34;82.06;102466.88;5034881;28;96535;-32
2022/11/13 09:54:20;;;;;;;5.80;3.67;;;;;;;9.43;82.12;102468.41;5034795;28;96865;-31
2022/11/13 09:56:57;;;;;;;6.95;3.08;;;;;;;9.55;81.66;102466.22;5035275;27;97968;-30
2022/11/13 09:59:37;;;;;;;4.53;2.95;;;;;;;9.72;80.99;102465.66;5034397;28;100747;-31
2022/11/13 10:02:30;;;;;;;4.85;2.53;;;;;;;9.81;80.58;102463.63;5034274;28;96969;-31
2022/11/13 10:05:18;;;;;;;9.40;2.85;;;;;;;9.94;80.25;102465.00;5035922;28;96843;-32
2022/11/13 10:08:02;;;;;;;4.00;2.58;;;;;;;10.09;80.34;102469.91;5035857;28;97524;-31
2022/11/13 10:10:42;;;;;;;4.65;2.72;;;;;;;10.24;79.36;102475.72;5035221;28;99282;-32
2022/11/13 10:13:11;;;;;;;5.20;2.95;;;;;;;10.37;79.30;102467.19;5034403;28;96579;-31
2022/11/13 10:15:39;;;;;;;4.32;2.83;;;;;;;10.48;78.76;102460.50;5035733;27;97868;-31
2022/11/13 10:18:11;;;;;;;5.07;3.30;;;;;;;10.63;79.23;102460.84;5033794;28;101575;-31
2022/11/13 10:20:47;;;;;;;3.95;2.60;;;;;;;10.74;78.56;102456.84;5032799;27;101223;-31
2022/11/13 10:23:17;;;;;;;6.05;4.43;;;;;;;10.89;78.61;102455.41;5034930;28;96608;-31
2022/11/13 10:25:43;;;;;;;5.90;3.95;;;;;;;11.00;77.94;102440.50;5034059;28;97156;-31
2022/11/13 10:28:22;;;;;;;3.70;2.88;;;;;;;11.22;77.22;102454.09;5033636;28;100846;-31
2022/11/13 10:30:48;;;;;;;4.60;2.72;;;;;;;11.34;77.14;102451.88;5035480;27;97927;-31
2022/11/13 10:33:18;;;;;;;5.28;2.55;;;;;;;11.49;77.46;102443.16;5033686;28;96677;-30
2022/11/13 10:35:54;;;;;;;4.82;2.80;;;;;;;11.57;76.81;102440.13;5033915;28;96926;-31
2022/11/13 10:38:31;;;;;;;5.57;3.05;;;;;;;11.64;76.33;102444.34;5033672;28;101028;-30
2022/11/13 10:41:05;;;;;;;4.18;2.95;;;;;;;11.73;76.19;102435.84;5033919;28;100840;-30
2022/11/13 10:43:31;;;;;;;7.60;3.10;;;;;;;11.78;76.05;102435.66;5033666;28;96683;-30
2022/11/13 10:46:02;;;;;;;4.88;2.92;;;;;;;11.84;75.24;102430.84;5035172;28;96887;-32
2022/11/13 10:48:33;;;;;;;6.70;3.72;;;;;;;11.96;75.07;102425.88;5032933;27;100982;-33
2022/11/13 10:51:16;;;;;;;6.18;3.40;;;;;;;12.10;74.93;102421.63;5033572;28;101009;-31
2022/11/13 10:53:41;;;;;;;5.78;3.00;;;;;;;12.19;74.46;102417.63;5035500;28;96655;-31
2022/11/13 10:56:31;;;;;;;4.95;2.70;;;;;;;12.29;73.26;102412.69;5035303;28;96780;-31
2022/11/13 10:59:12;;;;;;;5.43;2.85;;;;;;;12.29;72.60;102416.28;5033351;28;100834;-32
2022/11/13 11:01:38;;;;;;;4.65;2.58;;;;;;;12.38;73.67;102406.84;5033475;28;100955;-31
2022/11/13 11:04:06;;;;;;;4.70;2.70;;;;;;;12.41;71.80;102401.28;5033213;28;96997;-31
2022/11/13 11:06:36;;;;;;;5.47;2.58;;;;;;;12.45;72.07;102393.88;5033808;28;96931;-31
2022/11/13 11:09:20;;;;;;;5.85;2.55;;;;;;;12.56;71.47;102396.09;5034650;28;99433;-31
2022/11/13 11:12:19;;;;;;;7.63;2.42;;;;;;;12.58;71.56;102394.22;5034567;27;97872;-31
2022/11/13 11:14:59;;;;;;;5.57;3.10;;;;;;;12.69;72.38;102389.16;5034148;27;96476;-31
2022/11/13 11:17:33;;;;;;;4.20;2.42;;;;;;;12.72;70.41;102380.88;5034534;27;96642;-32
2022/11/13 11:20:06;;;;;;;4.35;2.47;;;;;;;12.78;70.82;102383.31;5033008;28;100816;-30
2022/11/13 11:22:35;;;;;;;7.25;3.13;;;;;;;12.87;70.23;102374.72;5023770;28;100963;-30
2022/11/13 11:25:08;;;;;;;4.93;2.92;;;;;;;12.91;70.51;102373.63;5010806;28;97022;-32
2022/11/13 11:27:40;;;;;;;5.47;3.20;;;;;;;13.00;71.82;102366.00;5010710;28;97292;-31
2022/11/13 11:30:18;;;;;;;6.97;3.33;;;;;;;13.07;71.24;102364.75;5011198;28;99323;-31
2022/11/13 11:32:47;;;;;;;6.22;2.85;;;;;;;13.15;71.37;102360.69;5015188;28;100647;-32
2022/11/13 11:35:36;;;;;;;6.82;3.67;;;;;;;13.22;70.89;102346.78;5015802;28;96725;-31